createdAt,value
2017-08-16T00:01:37.905Z,20.92
2017-08-16T00:04:05.857Z,20.96
2017-08-16T00:06:33.791Z,20.92
2017-08-16T00:09:01.797Z,20.98
2017-08-16T00:11:29.776Z,20.94
2017-08-16T00:13:57.427Z,20.85
2017-08-16T00:16:25.234Z,20.80
2017-08-16T00:18:52.816Z,20.80
2017-08-16T00:21:20.505Z,20.85
2017-08-16T00:23:48.178Z,20.85
2017-08-16T00:26:15.840Z,20.78
2017-08-16T00:28:43.891Z,20.64
2017-08-16T00:31:11.837Z,20.59
2017-08-16T00:33:39.801Z,20.67
2017-08-16T00:36:07.547Z,20.74
2017-08-16T00:38:35.173Z,20.64
2017-08-16T00:41:02.822Z,20.56
2017-08-16T00:43:30.600Z,20.50
2017-08-16T00:45:58.412Z,20.45
2017-08-16T00:48:26.381Z,20.37
2017-08-16T00:50:54.465Z,20.35
2017-08-16T00:53:22.375Z,20.24
2017-08-16T00:55:50.081Z,20.27
2017-08-16T00:58:17.973Z,20.10
2017-08-16T01:00:45.761Z,20.04
2017-08-16T01:03:13.606Z,19.95
2017-08-16T01:05:41.299Z,19.88
2017-08-16T01:08:09.013Z,20.03
2017-08-16T01:10:37.034Z,20.11
2017-08-16T01:13:05.003Z,20.07
2017-08-16T01:15:32.768Z,20.08
2017-08-16T01:18:00.635Z,20.24
2017-08-16T01:20:28.712Z,20.22
2017-08-16T01:22:56.414Z,20.27
2017-08-16T01:25:24.440Z,20.33
2017-08-16T01:27:52.153Z,20.32
2017-08-16T01:30:20.169Z,20.25
2017-08-16T01:32:47.831Z,20.19
2017-08-16T01:35:15.904Z,20.22
2017-08-16T01:37:43.667Z,20.19
2017-08-16T01:40:11.641Z,20.41
2017-08-16T01:42:39.555Z,20.42
2017-08-16T01:45:07.362Z,20.40
2017-08-16T01:47:35.036Z,20.30
2017-08-16T01:50:02.691Z,20.34
2017-08-16T01:52:30.524Z,20.39
2017-08-16T01:54:58.342Z,20.36
2017-08-16T01:57:26.300Z,20.41
2017-08-16T01:59:53.949Z,20.34
2017-08-16T02:02:21.611Z,20.50
2017-08-16T02:04:49.458Z,20.55
2017-08-16T02:07:17.358Z,20.35
2017-08-16T02:09:45.016Z,20.44
2017-08-16T02:12:13.092Z,20.52
2017-08-16T02:14:41.003Z,20.48
2017-08-16T02:17:09.843Z,20.41
2017-08-16T02:19:37.561Z,20.23
2017-08-16T02:22:05.522Z,20.17
2017-08-16T02:24:33.242Z,20.11
2017-08-16T02:27:01.311Z,20.21
2017-08-16T02:29:28.963Z,20.21
2017-08-16T02:31:56.629Z,20.22
2017-08-16T02:34:24.280Z,20.04
2017-08-16T02:36:51.963Z,19.94
2017-08-16T02:39:20.098Z,19.90
2017-08-16T02:41:47.916Z,19.97
2017-08-16T02:44:15.654Z,19.97
2017-08-16T02:46:43.620Z,19.88
2017-08-16T02:49:11.300Z,19.92
2017-08-16T02:51:39.283Z,19.92
2017-08-16T02:54:07.222Z,19.79
2017-08-16T02:56:35.265Z,19.65
2017-08-16T02:59:02.988Z,19.61
2017-08-16T03:01:30.701Z,19.53
2017-08-16T03:03:58.665Z,19.59
2017-08-16T03:06:26.354Z,19.57
2017-08-16T03:08:54.027Z,19.49
2017-08-16T03:11:22.100Z,19.46
2017-08-16T03:13:49.930Z,19.45
2017-08-16T03:16:17.673Z,19.44
2017-08-16T03:18:45.667Z,19.46
2017-08-16T03:21:13.614Z,19.35
2017-08-16T03:23:41.580Z,19.36
2017-08-16T03:26:09.444Z,19.33
2017-08-16T03:28:37.066Z,19.31
2017-08-16T03:31:05.001Z,19.39
2017-08-16T03:33:32.993Z,19.56
2017-08-16T03:36:00.937Z,19.52
2017-08-16T03:38:28.839Z,19.56
2017-08-16T03:40:56.912Z,19.65
2017-08-16T03:43:24.615Z,19.76
2017-08-16T03:45:52.329Z,19.84
2017-08-16T03:48:20.308Z,19.82
2017-08-16T03:50:48.140Z,19.93
2017-08-16T03:53:16.007Z,19.89
2017-08-16T03:55:43.750Z,20.00
2017-08-16T03:58:11.776Z,20.66
2017-08-16T04:00:39.485Z,21.43
2017-08-16T04:03:07.297Z,22.17
2017-08-16T04:05:35.042Z,22.67
2017-08-16T04:08:03.033Z,23.15
2017-08-16T04:10:30.903Z,24.02
2017-08-16T04:12:58.772Z,24.63
2017-08-16T04:15:26.483Z,25.12
2017-08-16T04:17:54.353Z,25.41
2017-08-16T04:20:22.317Z,25.38
2017-08-16T04:22:50.239Z,25.71
2017-08-16T04:25:18.311Z,25.87
2017-08-16T04:27:46.145Z,26.82
2017-08-16T04:30:13.840Z,27.19
2017-08-16T04:32:41.707Z,27.69
2017-08-16T04:35:09.548Z,28.09
2017-08-16T04:37:37.339Z,28.48
2017-08-16T04:40:05.306Z,28.82
2017-08-16T04:42:33.020Z,28.85
2017-08-16T04:45:01.316Z,28.80
2017-08-16T04:47:29.105Z,29.44
2017-08-16T04:49:56.826Z,30.06
2017-08-16T04:52:24.641Z,30.60
2017-08-16T04:54:52.506Z,30.60
2017-08-16T04:57:20.356Z,30.87
2017-08-16T04:59:48.218Z,31.98
2017-08-16T05:02:16.110Z,32.24
2017-08-16T05:04:43.828Z,32.72
2017-08-16T05:07:11.794Z,32.71
2017-08-16T05:09:39.615Z,33.03
2017-08-16T05:12:07.576Z,33.45
2017-08-16T05:14:35.420Z,33.48
2017-08-16T05:17:03.517Z,34.03
2017-08-16T05:19:31.355Z,34.16
2017-08-16T05:21:59.222Z,35.07
2017-08-16T05:24:27.114Z,33.96
2017-08-16T05:26:55.188Z,34.86
2017-08-16T05:29:23.049Z,34.85
2017-08-16T05:31:51.125Z,34.70
2017-08-16T05:34:18.960Z,35.35
2017-08-16T05:36:46.827Z,35.40
2017-08-16T05:39:14.892Z,35.98
2017-08-16T05:41:42.587Z,35.99
2017-08-16T05:44:10.255Z,36.74
2017-08-16T05:46:37.946Z,37.57
2017-08-16T05:49:05.763Z,37.29
2017-08-16T05:51:33.650Z,36.88
2017-08-16T05:54:01.649Z,36.34
2017-08-16T05:56:29.590Z,35.73
2017-08-16T05:58:57.427Z,35.94
2017-08-16T06:01:25.528Z,36.54
2017-08-16T06:03:53.246Z,36.72
2017-08-16T06:06:21.205Z,38.19
2017-08-16T06:08:49.077Z,38.88
2017-08-16T06:11:16.996Z,38.21
2017-08-16T06:13:44.714Z,39.47
2017-08-16T06:16:12.515Z,38.90
2017-08-16T06:18:40.473Z,38.70
2017-08-16T06:21:08.460Z,39.12
2017-08-16T06:23:36.535Z,39.15
2017-08-16T06:26:04.250Z,38.58
2017-08-16T06:28:32.269Z,38.78
2017-08-16T06:31:00.307Z,38.54
2017-08-16T06:33:28.001Z,38.94
2017-08-16T06:35:55.664Z,38.24
2017-08-16T06:38:23.531Z,38.63
2017-08-16T06:40:51.374Z,37.47
2017-08-16T06:43:19.121Z,35.89
2017-08-16T06:45:47.110Z,35.44
2017-08-16T06:48:14.791Z,35.22
2017-08-16T06:50:42.498Z,34.59
2017-08-16T06:53:10.526Z,33.58
2017-08-16T06:55:38.457Z,32.40
2017-08-16T06:58:06.448Z,32.91
2017-08-16T07:00:34.190Z,33.58
2017-08-16T07:03:01.997Z,33.78
2017-08-16T07:05:30.050Z,33.28
2017-08-16T07:07:57.932Z,32.25
2017-08-16T07:10:25.784Z,32.06
2017-08-16T07:12:53.627Z,33.38
2017-08-16T07:15:21.595Z,34.10
2017-08-16T07:17:49.437Z,35.11
2017-08-16T07:20:17.470Z,36.33
2017-08-16T07:22:45.397Z,36.37
2017-08-16T07:25:13.205Z,35.80
2017-08-16T07:27:41.278Z,35.18
2017-08-16T07:30:09.348Z,34.63
2017-08-16T07:32:37.069Z,35.42
2017-08-16T07:35:04.876Z,35.40
2017-08-16T07:37:32.949Z,34.99
2017-08-16T07:40:00.610Z,34.40
2017-08-16T07:42:28.337Z,34.89
2017-08-16T07:44:56.327Z,34.50
2017-08-16T07:47:24.195Z,33.37
2017-08-16T07:49:52.079Z,32.26
2017-08-16T07:52:20.006Z,31.49
2017-08-16T07:54:48.019Z,31.25
2017-08-16T07:57:15.814Z,33.37
2017-08-16T07:59:43.540Z,35.43
2017-08-16T08:02:11.400Z,33.50
2017-08-16T08:04:39.279Z,34.16
2017-08-16T08:07:07.144Z,35.95
2017-08-16T08:09:34.852Z,36.04
2017-08-16T08:12:02.878Z,36.25
2017-08-16T08:14:30.686Z,36.07
2017-08-16T08:16:58.530Z,35.45
2017-08-16T08:19:26.479Z,36.61
2017-08-16T08:21:54.552Z,36.71
2017-08-16T08:24:22.482Z,37.44
2017-08-16T08:26:50.343Z,37.53
2017-08-16T08:29:18.357Z,38.49
2017-08-16T08:31:46.207Z,37.94
2017-08-16T08:34:14.090Z,36.66
2017-08-16T08:36:41.752Z,35.04
2017-08-16T08:39:09.619Z,37.35
2017-08-16T08:41:37.487Z,37.22
2017-08-16T08:44:05.559Z,36.60
2017-08-16T08:46:33.408Z,35.86
2017-08-16T08:49:01.272Z,36.54
2017-08-16T08:51:28.948Z,33.88
2017-08-16T08:53:56.787Z,33.53
2017-08-16T08:56:24.687Z,33.97
2017-08-16T08:58:52.722Z,33.21
2017-08-16T09:01:20.465Z,35.17
2017-08-16T09:03:48.454Z,35.71
2017-08-16T09:06:16.225Z,36.18
2017-08-16T09:08:44.069Z,37.05
2017-08-16T09:11:11.951Z,36.88
2017-08-16T09:13:39.926Z,37.19
2017-08-16T09:16:07.646Z,35.98
2017-08-16T09:18:35.387Z,36.64
2017-08-16T09:21:03.355Z,36.91
2017-08-16T09:23:31.194Z,36.74
2017-08-16T09:25:59.191Z,35.68
2017-08-16T09:28:26.956Z,37.41
2017-08-16T09:30:54.617Z,36.14
2017-08-16T09:33:22.276Z,37.26
2017-08-16T09:35:50.131Z,37.06
2017-08-16T09:38:18.011Z,36.38
2017-08-16T09:40:45.669Z,34.85
2017-08-16T09:43:13.540Z,35.28
2017-08-16T09:45:41.408Z,37.08
2017-08-16T09:48:09.121Z,36.98
2017-08-16T09:50:37.145Z,36.25
2017-08-16T09:53:04.789Z,37.09
2017-08-16T09:55:32.673Z,37.08
2017-08-16T09:58:00.690Z,37.50
2017-08-16T10:00:28.611Z,38.11
2017-08-16T10:02:56.599Z,38.46
2017-08-16T10:05:24.551Z,36.71
2017-08-16T10:07:52.205Z,37.00
2017-08-16T10:10:20.050Z,37.07
2017-08-16T10:12:47.814Z,38.18
2017-08-16T10:15:15.657Z,38.15
2017-08-16T10:17:43.629Z,36.40
2017-08-16T10:20:11.493Z,35.22
2017-08-16T10:22:39.100Z,36.22
2017-08-16T10:25:06.737Z,35.83
2017-08-16T10:27:34.533Z,36.51
2017-08-16T10:30:02.181Z,37.29
2017-08-16T10:32:29.764Z,34.73
2017-08-16T10:34:57.674Z,36.69
2017-08-16T10:37:25.385Z,36.76
2017-08-16T10:39:53.229Z,37.18
2017-08-16T10:42:20.896Z,37.42
2017-08-16T10:44:48.495Z,37.39
2017-08-16T10:47:16.087Z,36.12
2017-08-16T10:49:44.075Z,37.79
2017-08-16T10:52:11.744Z,37.77
2017-08-16T10:54:39.620Z,38.12
2017-08-16T10:57:07.703Z,37.15
2017-08-16T10:59:37.493Z,36.03
2017-08-16T11:02:07.751Z,37.01
2017-08-16T11:04:37.767Z,36.64
2017-08-16T11:07:08.029Z,37.06
2017-08-16T11:09:36.034Z,37.88
2017-08-16T11:12:03.684Z,38.92
2017-08-16T11:14:31.580Z,37.50
2017-08-16T11:16:59.418Z,38.17
2017-08-16T11:19:27.106Z,38.49
2017-08-16T11:21:55.128Z,37.86
2017-08-16T11:24:23.019Z,37.08
2017-08-16T11:26:50.702Z,37.76
2017-08-16T11:29:18.564Z,37.60
2017-08-16T11:31:46.238Z,38.00
2017-08-16T11:34:14.304Z,37.37
2017-08-16T11:36:42.030Z,38.26
2017-08-16T11:39:09.877Z,38.20
2017-08-16T11:41:37.533Z,38.56
2017-08-16T11:44:05.117Z,37.38
2017-08-16T11:46:32.717Z,37.63
2017-08-16T11:49:00.380Z,37.48
2017-08-16T11:51:28.065Z,38.11
2017-08-16T11:53:56.011Z,37.72
2017-08-16T11:56:23.885Z,38.17
2017-08-16T11:58:51.540Z,39.01
2017-08-16T12:01:19.260Z,38.61
2017-08-16T12:03:47.277Z,37.39
2017-08-16T12:06:14.935Z,36.93
2017-08-16T12:08:42.784Z,36.81
2017-08-16T12:11:10.463Z,38.11
2017-08-16T12:13:38.312Z,38.21
2017-08-16T12:16:05.894Z,37.30
2017-08-16T12:18:33.660Z,37.20
2017-08-16T12:21:01.250Z,36.19
2017-08-16T12:23:28.985Z,35.12
2017-08-16T12:25:56.708Z,35.11
2017-08-16T12:28:24.667Z,35.03
2017-08-16T12:30:52.584Z,34.65
2017-08-16T12:33:20.654Z,34.87
2017-08-16T12:35:48.319Z,36.61
2017-08-16T12:38:16.187Z,36.00
2017-08-16T12:40:43.846Z,36.82
2017-08-16T12:43:11.555Z,37.68
2017-08-16T12:45:39.422Z,36.72
2017-08-16T12:48:07.314Z,36.05
2017-08-16T12:50:34.893Z,36.61
2017-08-16T12:55:35.342Z,35.79
2017-08-16T12:58:03.382Z,36.07
2017-08-16T13:00:31.076Z,35.32
2017-08-16T13:02:59.154Z,34.69
2017-08-16T13:05:26.884Z,34.33
2017-08-16T13:07:54.876Z,33.99
2017-08-16T13:10:22.519Z,33.68
2017-08-16T13:12:50.213Z,33.28
2017-08-16T13:15:17.870Z,32.98
2017-08-16T13:17:45.945Z,32.81
2017-08-16T13:20:13.663Z,33.21
2017-08-16T13:22:41.629Z,33.78
2017-08-16T13:25:09.444Z,33.89
2017-08-16T13:27:37.194Z,33.81
2017-08-16T13:30:04.804Z,33.29
2017-08-16T13:32:32.800Z,33.20
2017-08-16T13:35:00.767Z,33.51
2017-08-16T13:37:28.675Z,33.62
2017-08-16T13:39:56.677Z,33.71
2017-08-16T13:42:24.514Z,33.79
2017-08-16T13:44:52.336Z,33.85
2017-08-16T13:47:20.327Z,33.74
2017-08-16T13:49:48.008Z,33.18
2017-08-16T13:52:15.657Z,33.12
2017-08-16T13:54:43.380Z,33.32
2017-08-16T13:57:10.990Z,33.48
2017-08-16T13:59:38.656Z,33.62
2017-08-16T14:02:06.305Z,33.86
2017-08-16T14:04:34.390Z,33.87
2017-08-16T14:07:02.146Z,33.64
2017-08-16T14:09:29.981Z,33.37
2017-08-16T14:11:57.771Z,33.04
2017-08-16T14:14:25.450Z,32.77
2017-08-16T14:16:53.312Z,32.68
2017-08-16T14:19:20.980Z,32.47
2017-08-16T14:21:48.917Z,32.38
2017-08-16T14:24:16.638Z,32.14
2017-08-16T14:26:44.433Z,32.12
2017-08-16T14:29:12.446Z,32.24
2017-08-16T14:31:40.306Z,32.31
2017-08-16T14:34:08.166Z,32.48
2017-08-16T14:36:36.047Z,32.72
2017-08-16T14:39:03.907Z,32.67
2017-08-16T14:41:31.760Z,32.76
2017-08-16T14:43:59.651Z,32.80
2017-08-16T14:46:27.645Z,32.72
2017-08-16T14:48:55.484Z,32.91
2017-08-16T14:51:23.360Z,32.94
2017-08-16T14:53:51.271Z,32.88
2017-08-16T14:56:18.981Z,32.79
2017-08-16T14:58:46.709Z,32.74
2017-08-16T15:01:14.698Z,32.67
2017-08-16T15:03:42.689Z,32.58
2017-08-16T15:06:10.510Z,32.61
2017-08-16T15:08:38.310Z,32.57
2017-08-16T15:11:06.183Z,32.68
2017-08-16T15:13:33.910Z,32.52
2017-08-16T15:16:01.901Z,32.51
2017-08-16T15:18:29.694Z,32.59
2017-08-16T15:20:57.644Z,32.65
2017-08-16T15:23:25.493Z,32.68
2017-08-16T15:25:53.159Z,32.54
2017-08-16T15:28:21.009Z,32.48
2017-08-16T15:30:48.707Z,32.45
2017-08-16T15:33:17.787Z,32.57
2017-08-16T15:35:45.537Z,32.60
2017-08-16T15:38:13.186Z,32.47
2017-08-16T15:40:40.845Z,32.32
2017-08-16T15:43:08.454Z,32.29
2017-08-16T15:45:36.108Z,32.06
2017-08-16T15:48:03.707Z,32.11
2017-08-16T15:50:31.638Z,32.11
2017-08-16T15:52:59.295Z,32.16
2017-08-16T15:55:26.917Z,32.05
2017-08-16T15:57:54.514Z,32.04
2017-08-16T16:00:22.207Z,31.93
2017-08-16T16:02:49.789Z,31.85
2017-08-16T16:05:17.390Z,31.70
2017-08-16T16:07:45.202Z,31.58
2017-08-16T16:10:12.993Z,31.54
2017-08-16T16:12:40.582Z,31.42
2017-08-16T16:15:08.251Z,31.31
2017-08-16T16:17:35.863Z,31.14
2017-08-16T16:20:03.485Z,31.09
2017-08-16T16:22:31.171Z,30.96
2017-08-16T16:24:58.777Z,30.90
2017-08-16T16:27:26.366Z,30.85
2017-08-16T16:29:54.030Z,30.78
2017-08-16T16:32:21.637Z,30.71
2017-08-16T16:34:49.251Z,30.61
2017-08-16T16:37:16.943Z,30.46
2017-08-16T16:39:44.657Z,30.38
2017-08-16T16:42:12.528Z,30.36
2017-08-16T16:44:40.245Z,30.25
2017-08-16T16:47:07.865Z,30.14
2017-08-16T16:49:35.593Z,30.06
2017-08-16T16:52:03.502Z,29.93
2017-08-16T16:54:32.044Z,29.81
2017-08-16T16:56:59.631Z,29.64
2017-08-16T16:59:27.319Z,29.49
2017-08-16T17:01:54.906Z,29.35
2017-08-16T17:04:22.612Z,29.22
2017-08-16T17:06:50.276Z,29.09
2017-08-16T17:09:17.899Z,29.02
2017-08-16T17:11:45.497Z,28.55
2017-08-16T17:14:13.168Z,28.48
2017-08-16T17:16:40.755Z,28.38
2017-08-16T17:19:08.369Z,28.38
2017-08-16T17:21:36.018Z,28.33
2017-08-16T17:24:03.639Z,28.21
2017-08-16T17:26:31.286Z,28.15
2017-08-16T17:28:58.947Z,28.03
2017-08-16T17:31:26.554Z,27.93
2017-08-16T17:33:54.131Z,27.79
2017-08-16T17:36:21.787Z,27.79
2017-08-16T17:38:49.491Z,27.64
2017-08-16T17:41:17.127Z,27.62
2017-08-16T17:43:44.791Z,27.58
2017-08-16T17:46:12.410Z,27.36
2017-08-16T17:48:40.032Z,27.38
2017-08-16T17:51:08.108Z,27.35
2017-08-16T17:53:35.767Z,27.24
2017-08-16T17:56:03.600Z,27.19
2017-08-16T17:58:31.289Z,27.14
2017-08-16T18:00:58.896Z,27.01
2017-08-16T18:03:26.679Z,27.00
2017-08-16T18:05:54.469Z,26.87
2017-08-16T18:08:22.180Z,26.88
2017-08-16T18:10:50.120Z,26.85
2017-08-16T18:13:17.889Z,26.81
2017-08-16T18:15:45.536Z,26.77
2017-08-16T18:18:13.256Z,26.74
2017-08-16T18:20:41.061Z,26.81
2017-08-16T18:23:08.720Z,26.75
2017-08-16T18:25:36.577Z,26.76
2017-08-16T18:28:04.264Z,26.77
2017-08-16T18:30:32.333Z,26.73
2017-08-16T18:33:00.178Z,26.66
2017-08-16T18:35:27.863Z,26.58
2017-08-16T18:37:55.519Z,26.51
2017-08-16T18:40:23.391Z,26.37
2017-08-16T18:42:51.254Z,26.33
2017-08-16T18:45:19.136Z,26.26
2017-08-16T18:47:47.177Z,26.13
2017-08-16T18:50:15.127Z,26.02
2017-08-16T18:52:43.125Z,25.92
2017-08-16T18:55:11.294Z,25.81
2017-08-16T18:57:39.946Z,25.68
2017-08-16T19:00:08.461Z,25.48
2017-08-16T19:02:37.086Z,25.47
2017-08-16T19:05:05.804Z,25.35
2017-08-16T19:07:34.677Z,25.26
2017-08-16T19:10:03.451Z,25.22
2017-08-16T19:12:32.478Z,25.06
2017-08-16T19:15:01.864Z,25.00
2017-08-16T19:17:30.841Z,24.92
2017-08-16T19:19:59.915Z,24.80
2017-08-16T19:22:28.638Z,24.73
2017-08-16T19:24:57.505Z,24.62
2017-08-16T19:27:26.284Z,24.68
2017-08-16T19:29:55.165Z,24.56
2017-08-16T19:32:24.111Z,24.51
2017-08-16T19:34:53.319Z,24.43
2017-08-16T19:37:21.985Z,24.37
2017-08-16T19:39:50.679Z,24.25
2017-08-16T19:42:19.707Z,24.17
2017-08-16T19:44:48.163Z,24.11
2017-08-16T19:47:16.311Z,24.05
2017-08-16T19:49:44.879Z,24.06
2017-08-16T19:52:13.245Z,24.13
2017-08-16T19:54:41.622Z,24.12
2017-08-16T19:57:09.705Z,24.05
2017-08-16T19:59:38.321Z,24.06
2017-08-16T20:02:06.355Z,23.98
2017-08-16T20:04:34.392Z,23.93
2017-08-16T20:07:02.287Z,23.91
2017-08-16T20:09:30.163Z,23.82
2017-08-16T20:11:58.671Z,23.65
2017-08-16T20:14:26.565Z,23.58
2017-08-16T20:16:54.588Z,23.51
2017-08-16T20:19:22.446Z,23.46
2017-08-16T20:21:50.288Z,23.36
2017-08-16T20:24:18.232Z,23.27
2017-08-16T20:26:46.218Z,23.13
2017-08-16T20:29:13.961Z,22.92
2017-08-16T20:31:41.979Z,22.67
2017-08-16T20:34:09.856Z,22.49
2017-08-16T20:36:37.562Z,22.39
2017-08-16T20:39:05.531Z,22.23
2017-08-16T20:41:33.234Z,22.19
2017-08-16T20:44:01.219Z,22.13
2017-08-16T20:46:28.976Z,22.16
2017-08-16T20:48:57.019Z,22.09
2017-08-16T20:51:24.770Z,22.13
2017-08-16T20:53:52.788Z,22.24
2017-08-16T20:56:20.805Z,22.34
2017-08-16T20:58:48.726Z,22.47
2017-08-16T21:01:16.389Z,22.57
2017-08-16T21:03:44.249Z,22.54
2017-08-16T21:06:11.918Z,22.53
2017-08-16T21:08:39.763Z,22.39
2017-08-16T21:11:07.801Z,22.31
2017-08-16T21:13:35.512Z,22.12
2017-08-16T21:16:03.413Z,22.03
2017-08-16T21:18:31.251Z,21.94
2017-08-16T21:20:58.909Z,22.01
2017-08-16T21:23:26.782Z,21.90
2017-08-16T21:25:54.708Z,21.89
2017-08-16T21:28:22.509Z,21.71
2017-08-16T21:30:50.239Z,21.60
2017-08-16T21:33:18.030Z,21.70
2017-08-16T21:35:45.778Z,21.71
2017-08-16T21:38:13.741Z,21.72
2017-08-16T21:40:41.597Z,21.51
2017-08-16T21:43:09.508Z,21.38
2017-08-16T21:45:37.343Z,21.49
2017-08-16T21:48:05.089Z,21.52
2017-08-16T21:50:33.005Z,21.47
2017-08-16T21:53:00.981Z,21.28
2017-08-16T21:55:29.007Z,21.27
2017-08-16T21:57:56.880Z,21.41
2017-08-16T22:00:24.572Z,21.53
2017-08-16T22:02:52.613Z,21.47
2017-08-16T22:05:20.310Z,21.52
2017-08-16T22:07:48.120Z,21.47
2017-08-16T22:10:15.835Z,21.42
2017-08-16T22:12:43.506Z,21.26
2017-08-16T22:15:11.165Z,21.19
2017-08-16T22:17:39.192Z,21.23
2017-08-16T22:20:06.929Z,21.00
2017-08-16T22:22:34.876Z,20.94
2017-08-16T22:25:02.634Z,21.27
2017-08-16T22:27:30.361Z,21.05
2017-08-16T22:29:57.969Z,20.79
2017-08-16T22:32:26.030Z,20.53
2017-08-16T22:34:53.884Z,20.42
2017-08-16T22:37:21.726Z,20.32
2017-08-16T22:39:49.474Z,20.51
2017-08-16T22:42:17.338Z,20.53
2017-08-16T22:44:45.165Z,20.78
2017-08-16T22:47:12.809Z,20.81
2017-08-16T22:49:40.542Z,20.94
2017-08-16T22:52:08.505Z,20.62
2017-08-16T22:54:36.325Z,20.27
2017-08-16T22:57:04.140Z,20.09
2017-08-16T22:59:32.106Z,19.83
2017-08-16T23:01:59.918Z,19.73
2017-08-16T23:04:27.890Z,20.05
2017-08-16T23:06:55.732Z,20.37
2017-08-16T23:09:23.418Z,20.22
2017-08-16T23:11:51.144Z,20.07
2017-08-16T23:14:19.108Z,20.11
2017-08-16T23:16:46.875Z,20.09
2017-08-16T23:19:14.842Z,20.02
2017-08-16T23:21:42.607Z,20.06
2017-08-16T23:24:10.405Z,20.08
2017-08-16T23:26:38.282Z,20.02
2017-08-16T23:29:06.037Z,19.98
2017-08-16T23:31:33.798Z,19.82
2017-08-16T23:34:01.744Z,19.75
2017-08-16T23:36:29.711Z,19.65
2017-08-16T23:38:57.404Z,19.68
2017-08-16T23:41:25.244Z,20.07
2017-08-16T23:43:53.145Z,20.03
2017-08-16T23:46:21.104Z,20.04
2017-08-16T23:48:48.883Z,19.86
2017-08-16T23:51:16.543Z,19.94
2017-08-16T23:53:44.457Z,20.06
2017-08-16T23:56:12.419Z,20.01
2017-08-16T23:58:40.016Z,20.12
